Monarch, Colorado
Current Conditions -  °F | °C
As of 4:37 AM on Friday 24 Oct 2014 (Local Time) from KMYP Reporting Station
Clear Clear  
Wind Chill: 21°   Ceiling: Unl
Heat Index: 34°   Visibility: 10mi
Dew Point: 25°   Wind: 25mph
Humidity: 70%   Direction: 250°WSW
Pressure: 30.67"   Gusts: NA
Location:  38.54°N, 106.31°W
Report Text: KMYP 241037Z AUTO 25022KT 10SM CLR 01/M04 A3067 RMK AO2
Loading
Personal Weather Stations






























Interactive Weather Map
Tropical Storm Tracking
New forecast layout! Learn more

10-Day Weather Forecast

Advertisements
Track Severe Weather on mobile